createdAt,value
2019-03-04T00:02:23.233Z,27.90
2019-03-04T00:04:51.677Z,27.80
2019-03-04T00:07:20.082Z,27.70
2019-03-04T00:09:48.602Z,27.50
2019-03-04T00:12:17.001Z,27.50
2019-03-04T00:14:45.433Z,27.50
2019-03-04T00:17:13.865Z,27.50
2019-03-04T00:19:42.278Z,27.30
2019-03-04T00:22:11.212Z,27.10
2019-03-04T00:24:40.010Z,27.30
2019-03-04T00:27:08.423Z,27.20
2019-03-04T00:29:36.833Z,27.20
2019-03-04T00:32:05.332Z,27.30
2019-03-04T00:34:33.779Z,27.40
2019-03-04T00:37:02.269Z,27.50
2019-03-04T00:39:30.683Z,27.50
2019-03-04T00:41:59.468Z,27.20
2019-03-04T00:44:27.872Z,27.30
2019-03-04T00:46:56.618Z,27.30
2019-03-04T00:49:25.105Z,27.20
2019-03-04T00:51:53.566Z,27.30
2019-03-04T00:54:22.042Z,27.10
2019-03-04T00:56:50.470Z,27.00
2019-03-04T00:59:18.900Z,27.10
2019-03-04T01:01:47.324Z,27.00
2019-03-04T01:04:16.025Z,27.00
2019-03-04T01:06:44.702Z,27.20
2019-03-04T01:09:14.268Z,27.30
2019-03-04T01:11:42.671Z,27.00
2019-03-04T01:14:11.089Z,27.00
2019-03-04T01:16:39.506Z,26.80
2019-03-04T01:19:07.978Z,27.00
2019-03-04T01:21:36.745Z,27.00
2019-03-04T01:24:05.178Z,26.90
2019-03-04T01:26:33.911Z,27.10
2019-03-04T01:29:02.382Z,27.20
2019-03-04T01:31:31.070Z,27.40
2019-03-04T01:33:59.760Z,27.70
2019-03-04T01:36:28.187Z,28.10
2019-03-04T01:38:56.631Z,28.20
2019-03-04T01:41:25.092Z,28.50
2019-03-04T01:43:53.516Z,28.70
2019-03-04T01:46:22.290Z,28.80
2019-03-04T01:48:50.691Z,28.90
2019-03-04T01:51:19.150Z,29.20
2019-03-04T01:53:47.551Z,29.00
2019-03-04T01:56:16.009Z,29.30
2019-03-04T01:58:44.449Z,29.50
2019-03-04T02:01:12.873Z,29.70
2019-03-04T02:03:41.323Z,29.80
2019-03-04T02:06:10.016Z,30.00
2019-03-04T02:08:38.473Z,30.00
2019-03-04T02:11:06.922Z,30.30
2019-03-04T02:13:35.333Z,30.40
2019-03-04T02:16:04.013Z,30.40
2019-03-04T02:18:32.503Z,30.50
2019-03-04T02:21:00.921Z,30.70
2019-03-04T02:23:29.329Z,30.40
2019-03-04T02:26:00.825Z,30.40
2019-03-04T02:28:29.237Z,30.10
2019-03-04T02:30:57.654Z,30.30
2019-03-04T02:33:26.053Z,30.50
2019-03-04T02:35:54.471Z,30.50
2019-03-04T02:38:22.884Z,30.40
2019-03-04T02:40:51.370Z,30.50
2019-03-04T02:43:19.835Z,30.60
2019-03-04T02:45:48.315Z,30.60
2019-03-04T02:48:16.723Z,30.60
2019-03-04T02:50:45.393Z,31.10
2019-03-04T02:53:13.845Z,31.50
2019-03-04T02:55:42.254Z,31.40
2019-03-04T02:58:10.680Z,31.70
2019-03-04T03:00:39.110Z,32.50
2019-03-04T03:03:07.569Z,33.10
2019-03-04T03:05:35.994Z,33.40
2019-03-04T03:08:04.415Z,33.50
2019-03-04T03:10:32.832Z,33.30
2019-03-04T03:13:01.264Z,33.40
2019-03-04T03:15:29.671Z,33.20
2019-03-04T03:17:58.135Z,33.40
2019-03-04T03:20:26.562Z,33.90
2019-03-04T03:22:55.011Z,34.80
2019-03-04T03:25:23.813Z,35.10
2019-03-04T03:27:52.261Z,35.00
2019-03-04T03:30:21.930Z,34.90
2019-03-04T03:32:50.347Z,35.40
2019-03-04T03:35:18.804Z,35.30
2019-03-04T03:37:47.263Z,35.30
2019-03-04T03:40:17.514Z,35.50
2019-03-04T03:42:45.982Z,35.40
2019-03-04T03:45:14.494Z,36.00
2019-03-04T03:47:43.266Z,35.80
2019-03-04T03:50:15.950Z,35.80
2019-03-04T03:52:44.685Z,36.20
2019-03-04T03:55:14.232Z,35.50
2019-03-04T03:57:42.641Z,35.70
2019-03-04T04:00:23.176Z,35.30
2019-03-04T04:02:51.665Z,35.00
2019-03-04T04:05:20.212Z,34.90
2019-03-04T04:07:48.795Z,34.60
2019-03-04T04:10:21.489Z,35.40
2019-03-04T04:12:50.022Z,35.00
2019-03-04T04:15:19.954Z,34.50
2019-03-04T04:17:48.444Z,34.60
2019-03-04T04:20:16.942Z,34.10
2019-03-04T04:22:45.374Z,33.80
2019-03-04T04:25:14.880Z,34.20
2019-03-04T04:27:43.306Z,34.70
2019-03-04T04:30:17.282Z,34.40
2019-03-04T04:32:45.757Z,34.40
2019-03-04T04:35:14.181Z,34.30
2019-03-04T04:37:42.601Z,34.00
2019-03-04T04:40:14.162Z,34.30
2019-03-04T04:42:42.634Z,34.30
2019-03-04T04:45:11.781Z,33.90
2019-03-04T04:47:41.935Z,33.50
2019-03-04T04:50:19.892Z,33.70
2019-03-04T04:52:48.353Z,33.90
2019-03-04T04:55:16.797Z,34.10
2019-03-04T04:57:45.253Z,34.60
2019-03-04T05:00:15.748Z,34.40
2019-03-04T05:02:44.145Z,34.40
2019-03-04T05:05:12.665Z,34.50
2019-03-04T05:07:41.060Z,34.40
2019-03-04T05:10:20.856Z,34.40
2019-03-04T05:12:49.594Z,34.50
2019-03-04T05:15:18.400Z,34.80
2019-03-04T05:17:47.271Z,35.30
2019-03-04T05:20:21.934Z,35.40
2019-03-04T05:22:50.336Z,35.60
2019-03-04T05:25:18.757Z,36.00
2019-03-04T05:27:47.195Z,35.90
2019-03-04T05:30:17.846Z,36.70
2019-03-04T05:32:46.592Z,37.00
2019-03-04T05:35:15.050Z,37.20
2019-03-04T05:37:43.461Z,37.50
2019-03-04T05:40:19.817Z,37.10
2019-03-04T05:42:48.252Z,37.10
2019-03-04T05:45:17.646Z,37.70
2019-03-04T05:47:46.053Z,37.70
2019-03-04T05:50:19.876Z,37.80
2019-03-04T05:52:48.313Z,37.40
2019-03-04T05:55:16.760Z,37.00
2019-03-04T05:57:45.253Z,36.90
2019-03-04T06:00:16.678Z,36.50
2019-03-04T06:02:45.161Z,36.30
2019-03-04T06:05:14.526Z,36.30
2019-03-04T06:07:44.588Z,36.00
2019-03-04T06:10:13.432Z,35.50
2019-03-04T06:12:42.186Z,35.80
2019-03-04T06:15:16.481Z,35.80
2019-03-04T06:17:45.166Z,35.50
2019-03-04T06:20:15.808Z,36.30
2019-03-04T06:22:44.238Z,36.10
2019-03-04T06:25:15.418Z,36.80
2019-03-04T06:27:43.844Z,35.80
2019-03-04T06:30:20.659Z,36.20
2019-03-04T06:32:49.075Z,36.70
2019-03-04T06:35:17.491Z,36.30
2019-03-04T06:37:45.889Z,36.20
2019-03-04T06:40:16.202Z,36.60
2019-03-04T06:42:44.596Z,36.70
2019-03-04T06:45:17.290Z,36.80
2019-03-04T06:47:45.697Z,37.20
2019-03-04T06:50:43.468Z,36.20
2019-03-04T06:53:11.882Z,36.70
2019-03-04T06:56:03.162Z,35.30
2019-03-04T06:58:34.401Z,35.50
2019-03-04T07:01:06.208Z,33.20
2019-03-04T07:03:34.638Z,33.00
2019-03-04T07:06:03.073Z,31.30
2019-03-04T07:08:37.233Z,31.40
2019-03-04T07:11:05.870Z,31.10
2019-03-04T07:13:34.296Z,30.10
2019-03-04T07:16:02.845Z,29.30
2019-03-04T07:18:31.259Z,28.20
2019-03-04T07:20:59.682Z,27.30
2019-03-04T07:23:28.119Z,27.60
2019-03-04T07:25:56.608Z,26.90
2019-03-04T07:28:25.094Z,26.90
2019-03-04T07:30:54.405Z,26.90
2019-03-04T07:33:22.906Z,26.00
2019-03-04T07:35:51.342Z,26.90
2019-03-04T07:38:25.737Z,25.90
2019-03-04T07:41:13.843Z,25.10
2019-03-04T07:43:42.519Z,24.90
2019-03-04T07:46:10.956Z,24.80
2019-03-04T07:48:39.362Z,23.80
2019-03-04T07:51:13.298Z,23.70
2019-03-04T07:53:46.372Z,22.70
2019-03-04T07:56:12.046Z,22.90
2019-03-04T07:58:40.538Z,22.60
2019-03-04T08:01:08.970Z,22.80
2019-03-04T08:03:37.402Z,22.30
2019-03-04T08:06:06.301Z,21.30
2019-03-04T08:08:35.813Z,21.40
2019-03-04T08:11:13.023Z,21.00
2019-03-04T08:14:05.031Z,20.60
2019-03-04T08:16:36.027Z,19.70
2019-03-04T08:19:04.123Z,20.20
2019-03-04T08:21:32.534Z,20.30
2019-03-04T08:24:00.969Z,19.20
2019-03-04T08:26:29.453Z,19.30
2019-03-04T08:28:58.753Z,19.10
2019-03-04T08:31:27.630Z,19.30
2019-03-04T08:33:56.101Z,18.70
2019-03-04T08:36:24.565Z,18.90
2019-03-04T08:38:52.989Z,18.90
2019-03-04T08:41:21.398Z,19.30
2019-03-04T08:43:49.868Z,18.70
2019-03-04T08:46:18.336Z,18.10
2019-03-04T08:48:46.749Z,16.10
2019-03-04T08:51:15.181Z,14.70
2019-03-04T08:53:43.665Z,14.60
2019-03-04T08:56:12.469Z,14.30
2019-03-04T08:58:41.255Z,14.50
2019-03-04T09:01:09.751Z,14.80
2019-03-04T09:03:38.169Z,14.80
2019-03-04T09:06:06.589Z,14.80
2019-03-04T09:08:35.901Z,14.90
2019-03-04T09:11:04.469Z,15.60
2019-03-04T09:13:32.889Z,15.40
2019-03-04T09:16:01.308Z,15.30
2019-03-04T09:18:31.932Z,15.70
2019-03-04T09:20:59.840Z,16.00
2019-03-04T09:23:30.351Z,16.20
2019-03-04T09:26:04.641Z,16.50
2019-03-04T09:28:33.060Z,16.90
2019-03-04T09:31:01.476Z,17.00
2019-03-04T09:33:29.969Z,17.50
2019-03-04T09:35:58.421Z,17.60
2019-03-04T09:38:26.833Z,17.80
2019-03-04T09:40:55.360Z,18.30
2019-03-04T09:43:23.898Z,19.10
2019-03-04T09:45:52.297Z,19.80
2019-03-04T09:48:20.726Z,20.30
2019-03-04T09:50:49.167Z,21.00
2019-03-04T09:53:17.621Z,21.50
2019-03-04T09:55:46.127Z,21.90
2019-03-04T09:58:14.655Z,22.30
2019-03-04T10:00:52.260Z,22.70
2019-03-04T10:03:41.922Z,22.60
2019-03-04T10:06:40.982Z,22.90
2019-03-04T10:09:24.328Z,23.20
2019-03-04T10:12:27.611Z,23.70
2019-03-04T10:15:10.650Z,24.40
2019-03-04T10:17:42.186Z,24.60
2019-03-04T10:20:22.336Z,24.90
2019-03-04T10:22:53.822Z,25.00
2019-03-04T10:25:37.461Z,25.30
2019-03-04T10:28:44.112Z,25.60
2019-03-04T10:31:24.524Z,25.60
2019-03-04T10:34:14.067Z,25.80
2019-03-04T10:36:48.744Z,25.90
2019-03-04T10:39:22.435Z,26.20
2019-03-04T10:41:56.475Z,26.40
2019-03-04T10:44:44.526Z,26.50
2019-03-04T10:47:12.990Z,26.50
2019-03-04T10:49:41.401Z,26.80
2019-03-04T10:52:09.889Z,27.00
2019-03-04T10:54:38.310Z,27.50
2019-03-04T10:57:06.735Z,27.80
2019-03-04T10:59:35.141Z,28.80
2019-03-04T11:02:03.772Z,29.90
2019-03-04T11:04:32.211Z,30.00
2019-03-04T11:07:00.614Z,29.70
2019-03-04T11:09:29.086Z,29.30
2019-03-04T11:11:57.529Z,28.60
2019-03-04T11:14:25.970Z,29.00
2019-03-04T11:16:54.409Z,29.50
2019-03-04T11:19:22.928Z,29.30
2019-03-04T11:21:51.360Z,29.50
2019-03-04T11:24:19.772Z,30.00
2019-03-04T11:26:48.185Z,30.60
2019-03-04T11:29:16.671Z,31.10
2019-03-04T11:31:45.118Z,31.10
2019-03-04T11:34:13.530Z,31.90
2019-03-04T11:36:41.941Z,32.60
2019-03-04T11:39:20.888Z,32.90
2019-03-04T11:41:49.317Z,33.00
2019-03-04T11:44:17.796Z,32.20
2019-03-04T11:46:46.216Z,31.30
2019-03-04T11:49:14.629Z,30.40
2019-03-04T11:51:43.328Z,29.00
2019-03-04T11:54:11.742Z,29.20
2019-03-04T11:56:40.491Z,28.70
2019-03-04T11:59:08.885Z,28.90
2019-03-04T12:01:38.963Z,29.50
2019-03-04T12:04:07.384Z,30.00
2019-03-04T12:06:35.796Z,30.00
2019-03-04T12:09:07.413Z,30.50
2019-03-04T12:11:38.460Z,30.80
2019-03-04T12:14:06.541Z,31.10
2019-03-04T12:16:34.994Z,31.80
2019-03-04T12:19:03.437Z,31.80
2019-03-04T12:21:31.887Z,30.40
2019-03-04T12:24:00.553Z,30.60
2019-03-04T12:26:28.980Z,29.80
2019-03-04T12:28:57.413Z,30.30
2019-03-04T12:31:28.472Z,30.90
2019-03-04T12:33:57.049Z,31.40
2019-03-04T12:36:25.484Z,31.60
2019-03-04T12:38:53.925Z,30.80
2019-03-04T12:41:22.367Z,30.60
2019-03-04T12:43:50.807Z,31.00
2019-03-04T12:46:19.246Z,30.70
2019-03-04T12:48:50.698Z,30.00
2019-03-04T12:51:23.213Z,30.10
2019-03-04T12:53:49.546Z,29.30
2019-03-04T12:56:17.969Z,28.20
2019-03-04T12:58:46.675Z,27.60
2019-03-04T13:01:15.096Z,28.40
2019-03-04T13:03:43.512Z,28.30
2019-03-04T13:06:11.919Z,28.40
2019-03-04T13:08:40.337Z,29.00
2019-03-04T13:11:08.848Z,29.60
2019-03-04T13:13:37.293Z,29.60
2019-03-04T13:16:05.695Z,29.80
2019-03-04T13:18:34.157Z,29.80
2019-03-04T13:21:02.628Z,30.00
2019-03-04T13:23:31.077Z,30.00
2019-03-04T13:25:59.489Z,30.10
2019-03-04T13:28:27.979Z,31.00
2019-03-04T13:30:56.482Z,31.40
2019-03-04T13:33:24.925Z,31.10
2019-03-04T13:35:53.508Z,32.30
2019-03-04T13:38:22.231Z,31.30
2019-03-04T13:40:50.978Z,31.40
2019-03-04T13:43:19.416Z,31.20
2019-03-04T13:45:48.142Z,31.20
2019-03-04T13:48:16.962Z,30.80
2019-03-04T13:50:45.504Z,31.10
2019-03-04T13:53:13.977Z,31.10
2019-03-04T13:55:42.408Z,31.20
2019-03-04T13:58:10.905Z,31.50
2019-03-04T14:00:42.229Z,31.60
2019-03-04T14:03:12.983Z,31.90
2019-03-04T14:05:41.460Z,33.00
2019-03-04T14:08:09.969Z,33.30
2019-03-04T14:10:50.141Z,33.70
2019-03-04T14:13:18.585Z,33.60
2019-03-04T14:15:49.940Z,33.90
2019-03-04T14:18:19.225Z,34.00
2019-03-04T14:20:47.627Z,34.20
2019-03-04T14:23:16.044Z,34.10
2019-03-04T14:25:44.475Z,34.20
2019-03-04T14:28:13.257Z,34.10
2019-03-04T14:30:41.681Z,34.30
2019-03-04T14:33:12.035Z,34.40
2019-03-04T14:35:40.908Z,34.80
2019-03-04T14:38:12.260Z,35.30
2019-03-04T14:40:40.739Z,35.60
2019-03-04T14:45:56.849Z,36.20
2019-03-04T14:48:25.269Z,36.60
2019-03-04T14:50:53.675Z,36.90
2019-03-04T14:53:22.759Z,36.90
2019-03-04T14:55:51.161Z,37.00
2019-03-04T14:58:20.092Z,36.80
2019-03-04T15:00:50.290Z,36.70
2019-03-04T15:03:23.130Z,36.90
2019-03-04T15:05:48.877Z,36.60
2019-03-04T15:08:17.283Z,36.50
2019-03-04T15:10:45.706Z,36.30
2019-03-04T15:13:14.109Z,36.30
2019-03-04T15:18:35.163Z,35.60
2019-03-04T15:21:04.175Z,35.50
2019-03-04T15:23:32.573Z,35.30
2019-03-04T15:26:01.038Z,35.20
2019-03-04T15:28:29.471Z,34.30
2019-03-04T15:31:01.757Z,33.90
2019-03-04T15:33:30.190Z,31.90
2019-03-04T15:35:58.853Z,31.50
2019-03-04T15:38:27.289Z,30.90
2019-03-04T15:40:55.737Z,30.20
2019-03-04T15:43:24.233Z,29.70
2019-03-04T15:45:57.101Z,29.30
2019-03-04T15:48:28.604Z,29.20
2019-03-04T15:50:57.458Z,29.20
2019-03-04T15:53:25.957Z,28.90
2019-03-04T15:55:54.727Z,28.90
2019-03-04T15:58:23.260Z,29.00
2019-03-04T16:00:51.801Z,29.00
2019-03-04T16:03:20.567Z,29.10
2019-03-04T16:05:49.369Z,29.10
2019-03-04T16:08:18.117Z,29.20
2019-03-04T16:10:46.757Z,29.50
2019-03-04T16:13:15.164Z,29.70
2019-03-04T16:15:46.737Z,29.70
2019-03-04T16:18:15.174Z,29.80
2019-03-04T16:20:44.134Z,29.90
2019-03-04T16:23:12.562Z,29.90
2019-03-04T16:25:41.346Z,29.80
2019-03-04T16:28:15.229Z,29.80
2019-03-04T16:30:43.723Z,29.60
2019-03-04T16:33:31.477Z,29.80
2019-03-04T16:36:00.265Z,29.10
2019-03-04T16:38:28.697Z,29.10
2019-03-04T16:40:57.177Z,29.10
2019-03-04T16:43:25.653Z,29.00
2019-03-04T16:45:54.103Z,29.10
2019-03-04T16:48:22.541Z,29.10
2019-03-04T16:50:51.217Z,28.80
2019-03-04T16:53:25.966Z,28.50
2019-03-04T16:55:54.413Z,28.40
2019-03-04T16:58:23.258Z,28.30
2019-03-04T17:00:51.857Z,28.00
2019-03-04T17:03:20.280Z,28.10
2019-03-04T17:05:49.131Z,28.00
2019-03-04T17:08:17.528Z,28.00
2019-03-04T17:10:46.037Z,27.60
2019-03-04T17:13:14.477Z,27.70
2019-03-04T17:15:42.961Z,27.80
2019-03-04T17:18:11.375Z,27.80
2019-03-04T17:20:40.184Z,27.60
2019-03-04T17:23:08.909Z,27.20
2019-03-04T17:25:38.098Z,26.90
2019-03-04T17:28:06.990Z,26.80
2019-03-04T17:30:35.883Z,26.60
2019-03-04T17:33:04.274Z,26.50
2019-03-04T17:35:32.691Z,26.80
2019-03-04T17:38:01.119Z,26.60
2019-03-04T17:40:30.366Z,26.70
2019-03-04T17:42:58.796Z,26.90
2019-03-04T17:45:28.443Z,27.10
2019-03-04T17:47:56.854Z,27.30
2019-03-04T17:50:33.853Z,27.40
2019-03-04T17:53:03.911Z,27.60
2019-03-04T17:55:32.585Z,28.00
2019-03-04T17:58:01.000Z,27.90
2019-03-04T18:00:29.957Z,27.90
2019-03-04T18:02:58.385Z,27.90
2019-03-04T18:05:26.787Z,28.10
2019-03-04T18:07:55.219Z,29.20
2019-03-04T18:10:24.130Z,31.20
2019-03-04T18:12:55.418Z,39.30
2019-03-04T18:15:32.550Z,41.60
2019-03-04T18:18:00.961Z,44.60
2019-03-04T18:20:34.337Z,48.60
2019-03-04T18:22:59.521Z,52.50
2019-03-04T18:25:36.233Z,55.70
2019-03-04T18:28:36.698Z,58.30
2019-03-04T18:31:30.663Z,58.20
2019-03-04T18:34:18.613Z,61.10
2019-03-04T18:37:19.689Z,63.80
2019-03-04T18:40:06.271Z,63.20
2019-03-04T18:42:52.921Z,64.60
2019-03-04T18:45:36.446Z,64.90
2019-03-04T18:48:22.706Z,65.80
2019-03-04T18:50:51.106Z,64.90
2019-03-04T18:53:19.969Z,65.50
2019-03-04T18:55:48.469Z,64.10
2019-03-04T18:58:16.906Z,64.70
2019-03-04T19:00:45.404Z,64.40
2019-03-04T19:03:14.087Z,64.20
2019-03-04T19:05:45.444Z,64.20
2019-03-04T19:08:13.912Z,64.10
2019-03-04T19:10:42.402Z,63.80
2019-03-04T19:13:10.909Z,63.00
2019-03-04T19:15:39.307Z,64.10
2019-03-04T19:18:08.083Z,64.50
2019-03-04T19:20:36.518Z,65.00
2019-03-04T19:23:05.090Z,66.80
2019-03-04T19:25:33.590Z,69.10
2019-03-04T19:28:02.350Z,67.70
2019-03-04T19:30:30.837Z,69.40
2019-03-04T19:32:59.430Z,70.60
2019-03-04T19:35:27.858Z,71.30
2019-03-04T19:37:56.277Z,70.80
2019-03-04T19:40:25.066Z,70.80
2019-03-04T19:42:53.502Z,70.40
2019-03-04T19:45:21.930Z,69.20
2019-03-04T19:47:50.417Z,69.50
2019-03-04T19:50:18.857Z,67.70
2019-03-04T19:52:47.265Z,67.70
2019-03-04T19:55:16.913Z,67.60
2019-03-04T19:57:45.879Z,66.70
2019-03-04T20:00:25.624Z,66.00
2019-03-04T20:02:54.382Z,65.00
2019-03-04T20:05:24.308Z,64.80
2019-03-04T20:07:52.875Z,63.40
2019-03-04T20:10:21.385Z,63.40
2019-03-04T20:12:49.981Z,62.80
2019-03-04T20:15:23.270Z,62.30
2019-03-04T20:17:52.273Z,62.60
2019-03-04T20:20:20.935Z,62.00
2019-03-04T20:22:49.441Z,61.90
2019-03-04T20:25:18.838Z,61.40
2019-03-04T20:27:47.358Z,62.80
2019-03-04T20:30:25.538Z,63.70
2019-03-04T20:32:53.813Z,64.60
2019-03-04T20:35:22.792Z,67.30
2019-03-04T20:38:03.045Z,69.50
2019-03-04T20:40:31.615Z,70.10
2019-03-04T20:43:00.045Z,70.20
2019-03-04T20:45:28.577Z,70.30
2019-03-04T20:47:57.874Z,71.40
2019-03-04T20:50:26.286Z,72.00
2019-03-04T20:52:54.753Z,73.80
2019-03-04T20:55:23.607Z,72.70
2019-03-04T20:57:52.261Z,73.60
2019-03-04T21:00:31.659Z,77.00
2019-03-04T21:03:00.471Z,77.40
2019-03-04T21:05:29.656Z,76.90
2019-03-04T21:07:58.333Z,78.80
2019-03-04T21:10:27.554Z,80.00
2019-03-04T21:12:57.689Z,78.20
2019-03-04T21:15:26.904Z,79.00
2019-03-04T21:17:55.664Z,79.20
2019-03-04T21:20:24.094Z,81.10
2019-03-04T21:22:52.593Z,80.60
2019-03-04T21:25:43.201Z,79.60
2019-03-04T21:28:18.531Z,80.60
2019-03-04T21:30:58.933Z,82.30
2019-03-04T21:33:36.556Z,82.80
2019-03-04T21:36:30.710Z,82.80
2019-03-04T21:39:00.234Z,83.20
2019-03-04T21:41:34.758Z,82.00
2019-03-04T21:44:08.835Z,82.50
2019-03-04T21:47:01.348Z,80.90
2019-03-04T21:49:32.482Z,79.70
2019-03-04T21:52:33.509Z,77.30
2019-03-04T21:55:04.408Z,75.70
2019-03-04T21:57:36.719Z,76.50
2019-03-04T22:00:08.220Z,75.80
2019-03-04T22:02:57.918Z,73.60
2019-03-04T22:05:26.669Z,70.90
2019-03-04T22:07:55.613Z,71.70
2019-03-04T22:10:24.030Z,71.00
2019-03-04T22:12:52.515Z,68.00
2019-03-04T22:15:20.989Z,68.20
2019-03-04T22:17:49.741Z,66.70
2019-03-04T22:20:18.355Z,66.70
2019-03-04T22:22:46.887Z,65.20
2019-03-04T22:25:15.458Z,65.50
2019-03-04T22:27:43.913Z,66.80
2019-03-04T22:30:15.338Z,66.50
2019-03-04T22:32:43.846Z,65.20
2019-03-04T22:35:17.057Z,64.30
2019-03-04T22:37:45.212Z,64.50
2019-03-04T22:40:22.195Z,64.70
2019-03-04T22:42:51.154Z,65.10
2019-03-04T22:45:21.613Z,65.70
2019-03-04T22:47:51.489Z,65.20
2019-03-04T22:50:21.721Z,64.60
2019-03-04T22:52:50.340Z,63.90
2019-03-04T22:55:24.671Z,63.80
2019-03-04T22:57:53.066Z,63.60
2019-03-04T23:00:42.670Z,62.50
2019-03-04T23:03:11.326Z,62.50
2019-03-04T23:05:39.818Z,62.10
2019-03-04T23:08:08.245Z,61.00
2019-03-04T23:10:42.198Z,61.00
2019-03-04T23:13:13.716Z,61.00
2019-03-04T23:15:43.081Z,59.70
2019-03-04T23:18:11.502Z,59.50
2019-03-04T23:20:39.997Z,58.50
2019-03-04T23:23:08.395Z,58.00
2019-03-04T23:25:36.821Z,56.80
2019-03-04T23:28:05.312Z,58.10
2019-03-04T23:30:33.736Z,57.40
2019-03-04T23:33:02.167Z,56.70
2019-03-04T23:35:30.599Z,57.10
2019-03-04T23:37:59.015Z,56.50
2019-03-04T23:40:27.526Z,56.50
2019-03-04T23:42:55.947Z,55.90
2019-03-04T23:45:24.354Z,55.50
2019-03-04T23:47:52.790Z,56.20
2019-03-04T23:50:23.518Z,55.60
2019-03-04T23:52:52.292Z,55.00
2019-03-04T23:55:21.533Z,54.70
2019-03-04T23:57:49.950Z,55.50
